Aérodrome :
LOGIN :

S'inscrire | Disclaimer

   EN    FR    IT 

 










Légende :    VFR   VFR Marginal   IFR   IFR Intensif   IFR Très Intensif
Visi : 
Plafond : 
>= 8 km
>= 3000ft
5 à 8 km
1000 à 3000 ft
1500m à 5 km
500 à 1000 ft
800 à 1500m
200 à 500 ft
< 800m
< 200 ft
Symboles :   Orages  Brouillard  Fortes neiges  Fortes précipitations  Vent > 20 kt
SIGMETs :   Divers  Orages  Givrage  Turbulence  Onde Orograph.  Cendres Volcan.







- Altitude de l'aérodrome : 82 ft
- Code IATA : QIE
- Voir les cartes d'approche


LFMI - Istres

DERNIER METAR :
  • 211900Z AUTO 31016KT CAVOK 21/08 Q1012 BECMG 34020G30KT

METARs EXPIRÉS :
  • 211830Z AUTO 32017KT CAVOK 22/07 Q1012 BECMG 34020G30KT
  • 211800Z AUTO 32020KT CAVOK 23/07 Q1011 BECMG 34020G30KT
  • 211730Z AUTO 33020KT CAVOK 24/07 Q1011 BECMG 34020G30KT
  • 211700Z AUTO 33019KT CAVOK 24/07 Q1011 BECMG 34020G30KT
  • 211630Z AUTO 33018KT 300V360 CAVOK 24/06 Q1011 BECMG 34020G30KT

TAF TAF LFMI
Valide du 21 à 15h jusqu'au 22 à 15h UTC


211400Z 2115/2215 32024G34KT CAVOK
BECMG 2116/2117 34020G30KT
BECMG 2123/2124 34015G25KT
Pas de NOTAMs connus pour ce terrain.



MET'MAP, la Météo Aéronautique d'un coup d'oeil ! - Copyright ORBIFLY Décembre 2007 - Disclaimer

ORBIFLY MET'MAP TEAM :

Programmation & Développement : Alexandra Zaïnal
Conception & Développement : Baudouin d'Aumeries
Co-Programmation & Développement : Marc-Olivier Méhu
Soutien technique & logistique : Manuel Goepfert

Contact : metmap@orbifly.com




SOURCES & CREDITS :

   NOAA